Time;durP1;ratioP1;P1;durP2;ratioP2;P2;SDS_P1;SDS_P2;PMS_P1;PMS_P2;Temp;Humidity;BMP_temperature;BMP_pressure;BME280_temperature;BME280_humidity;BME280_pressure;Samples;Min_cycle;Max_cycle;Signal;HPM_P1;HPM_P2
2022/08/31 00:06:03;;;;;;;5.78;1.45;;;14.30;99.90;;;;;;4970600;28;20573;-59
2022/08/31 00:08:30;;;;;;;5.90;1.70;;;14.30;99.90;;;;;;4972877;28;20103;-60
2022/08/31 00:10:56;;;;;;;7.05;1.58;;;14.40;99.90;;;;;;4975099;28;20039;-58
2022/08/31 00:13:23;;;;;;;5.88;1.73;;;14.40;99.90;;;;;;4970486;28;20078;-59
2022/08/31 00:15:50;;;;;;;2.15;1.45;;;14.40;99.90;;;;;;4970365;28;20129;-58
2022/08/31 00:18:17;;;;;;;3.45;1.25;;;14.40;99.90;;;;;;4971251;28;20027;-58
2022/08/31 00:20:45;;;;;;;3.05;1.00;;;14.40;99.90;;;;;;4972976;28;20393;-58
2022/08/31 00:23:13;;;;;;;4.28;1.27;;;14.30;99.90;;;;;;4973401;28;20029;-59
2022/08/31 00:25:42;;;;;;;3.83;1.73;;;14.30;99.90;;;;;;4969894;28;20047;-59
2022/08/31 00:28:09;;;;;;;4.53;1.60;;;14.30;99.90;;;;;;4974579;28;20030;-59
2022/08/31 00:30:35;;;;;;;4.40;1.45;;;14.30;99.90;;;;;;4971662;28;20138;-59
2022/08/31 00:33:02;;;;;;;6.72;1.38;;;14.20;99.90;;;;;;4970031;28;20023;-59
2022/08/31 00:35:29;;;;;;;3.58;1.15;;;14.20;99.90;;;;;;4970983;28;20031;-58
2022/08/31 00:37:56;;;;;;;1.63;1.10;;;14.20;99.90;;;;;;4970486;28;20046;-59
2022/08/31 00:40:22;;;;;;;3.95;1.30;;;14.20;99.90;;;;;;4970720;28;20084;-58
2022/08/31 00:42:47;;;;;;;9.52;2.63;;;14.20;99.90;;;;;;4969548;28;20065;-59
2022/08/31 00:45:13;;;;;;;4.05;1.33;;;14.20;99.90;;;;;;4971033;28;20490;-59
2022/08/31 00:47:39;;;;;;;4.47;1.45;;;14.20;99.90;;;;;;4968506;28;20027;-59
2022/08/31 00:50:08;;;;;;;3.05;1.10;;;14.20;99.90;;;;;;4974748;28;20367;-60
2022/08/31 00:52:38;;;;;;;4.15;1.35;;;14.10;99.90;;;;;;4971482;28;20023;-59
2022/08/31 00:55:12;;;;;;;5.53;1.45;;;14.10;99.90;;;;;;4971379;28;20077;-59
2022/08/31 00:57:42;;;;;;;3.63;1.35;;;14.10;99.90;;;;;;4964844;28;20034;-60
2022/08/31 01:00:12;;;;;;;3.92;1.15;;;14.10;99.90;;;;;;4978298;28;20101;-59
2022/08/31 01:02:39;;;;;;;5.40;1.00;;;14.10;99.90;;;;;;4963435;28;20050;-59
2022/08/31 01:05:05;;;;;;;7.97;1.20;;;14.00;99.90;;;;;;4971138;28;20045;-58
2022/08/31 01:07:31;;;;;;;4.03;1.40;;;14.00;99.90;;;;;;4979125;28;20054;-59
2022/08/31 01:09:57;;;;;;;8.27;1.55;;;14.00;99.90;;;;;;4968860;28;20058;-58
2022/08/31 01:12:24;;;;;;;9.48;1.25;;;14.10;99.90;;;;;;4970703;28;20046;-59
2022/08/31 01:14:51;;;;;;;3.22;1.30;;;14.00;99.90;;;;;;4969063;28;20027;-58
2022/08/31 01:17:17;;;;;;;3.63;1.15;;;14.00;99.90;;;;;;4969928;28;20106;-58
2022/08/31 01:19:54;;;;;;;5.18;1.50;;;13.90;99.90;;;;;;4969060;28;20486;-58
2022/08/31 01:22:42;;;;;;;1.70;0.80;;;13.90;99.90;;;;;;4970541;28;20038;-59
2022/08/31 01:25:08;;;;;;;3.38;1.20;;;13.90;99.90;;;;;;4972749;28;20037;-58
2022/08/31 01:27:35;;;;;;;5.00;1.77;;;13.80;99.90;;;;;;4966979;28;20394;-58
2022/08/31 01:30:05;;;;;;;2.58;1.60;;;13.80;99.90;;;;;;4968579;28;20030;-58
2022/08/31 01:32:31;;;;;;;5.30;1.35;;;13.80;99.90;;;;;;4970945;28;20150;-59
2022/08/31 01:34:56;;;;;;;4.28;1.00;;;13.70;99.90;;;;;;4970375;28;20754;-59
2022/08/31 01:37:22;;;;;;;4.25;1.60;;;13.70;99.90;;;;;;4970704;28;20034;-58
2022/08/31 01:39:49;;;;;;;4.47;1.67;;;13.90;99.90;;;;;;4968883;28;20031;-59
2022/08/31 01:42:15;;;;;;;3.30;1.60;;;13.80;99.90;;;;;;4969354;28;20023;-61
2022/08/31 01:44:41;;;;;;;3.92;0.93;;;13.80;99.90;;;;;;4968122;28;20031;-60
2022/08/31 01:47:07;;;;;;;6.15;0.98;;;13.80;99.90;;;;;;4970726;28;20045;-59
2022/08/31 01:49:32;;;;;;;2.65;1.00;;;13.70;99.90;;;;;;4970117;28;20031;-61
2022/08/31 01:51:58;;;;;;;7.97;1.50;;;13.70;99.90;;;;;;4968677;28;20391;-58
2022/08/31 01:54:26;;;;;;;4.50;1.38;;;13.60;99.90;;;;;;4969658;28;20386;-62
2022/08/31 01:56:53;;;;;;;5.40;1.25;;;13.60;99.90;;;;;;4973271;28;20027;-59
2022/08/31 01:59:21;;;;;;;1.75;0.98;;;13.60;99.90;;;;;;4970299;28;20109;-60
2022/08/31 02:01:51;;;;;;;8.75;1.02;;;13.60;99.90;;;;;;4964289;28;20027;-62
2022/08/31 02:04:20;;;;;;;3.35;1.00;;;13.60;99.90;;;;;;4970235;28;20122;-60
2022/08/31 02:06:56;;;;;;;3.95;1.02;;;13.60;99.90;;;;;;4971078;28;20050;-60
2022/08/31 02:09:22;;;;;;;5.47;1.08;;;13.50;99.90;;;;;;4973046;28;20022;-60
2022/08/31 02:11:48;;;;;;;5.20;1.38;;;13.40;99.90;;;;;;4970279;28;20052;-60
2022/08/31 02:14:14;;;;;;;10.90;1.92;;;13.50;99.90;;;;;;4977591;28;20026;-61
2022/08/31 02:16:40;;;;;;;2.22;1.02;;;13.40;99.90;;;;;;4971319;28;20031;-60
2022/08/31 02:19:06;;;;;;;4.20;1.10;;;13.40;99.90;;;;;;4974028;28;20033;-58
2022/08/31 02:21:32;;;;;;;5.80;1.45;;;13.40;99.90;;;;;;4970147;28;20434;-57
2022/08/31 02:23:58;;;;;;;4.63;1.10;;;13.40;99.90;;;;;;4976220;28;20042;-60
2022/08/31 02:26:24;;;;;;;4.18;1.40;;;13.30;99.90;;;;;;4980747;28;20034;-60
2022/08/31 02:28:50;;;;;;;3.50;1.05;;;13.30;99.90;;;;;;4980917;28;20565;-59
2022/08/31 02:31:16;;;;;;;4.53;0.90;;;13.20;99.90;;;;;;4979328;28;20046;-60
2022/08/31 02:33:43;;;;;;;6.18;1.08;;;13.20;99.90;;;;;;4971759;28;20023;-60
2022/08/31 02:36:08;;;;;;;4.50;0.80;;;13.20;99.90;;;;;;4981289;28;20058;-59
2022/08/31 02:38:35;;;;;;;5.45;1.10;;;13.20;99.90;;;;;;4977272;28;20061;-59
2022/08/31 02:41:02;;;;;;;3.05;1.10;;;13.10;99.90;;;;;;4979862;28;20118;-58
2022/08/31 02:43:28;;;;;;;7.07;1.52;;;13.10;99.90;;;;;;4975166;28;20098;-59
2022/08/31 02:45:54;;;;;;;2.30;0.98;;;13.00;99.90;;;;;;4978560;28;20402;-59
2022/08/31 02:48:20;;;;;;;3.47;1.23;;;13.00;99.90;;;;;;4982627;28;20029;-59
2022/08/31 02:50:48;;;;;;;4.10;0.95;;;13.00;99.90;;;;;;4974721;28;20038;-58
2022/08/31 02:53:17;;;;;;;5.60;0.98;;;13.00;99.90;;;;;;4982853;28;20470;-59
2022/08/31 02:55:43;;;;;;;3.70;1.20;;;13.00;99.90;;;;;;4975542;28;20031;-58
2022/08/31 02:58:10;;;;;;;4.43;1.48;;;12.90;99.90;;;;;;4973978;28;20434;-59
2022/08/31 03:00:37;;;;;;;7.30;1.85;;;13.00;99.90;;;;;;4978840;28;20054;-60
2022/08/31 03:03:03;;;;;;;3.22;1.17;;;13.00;99.90;;;;;;4971635;28;20512;-60
2022/08/31 03:05:29;;;;;;;4.40;1.08;;;13.00;99.90;;;;;;4972412;28;20042;-59
2022/08/31 03:07:55;;;;;;;7.07;1.38;;;13.00;99.90;;;;;;4969928;28;20038;-58
2022/08/31 03:10:23;;;;;;;6.68;1.15;;;13.00;99.90;;;;;;4975276;28;20030;-58
2022/08/31 03:12:50;;;;;;;6.00;1.40;;;13.00;99.90;;;;;;4970682;28;20391;-58
2022/08/31 03:15:18;;;;;;;3.28;1.73;;;12.90;99.90;;;;;;4972941;28;20406;-59
2022/08/31 03:17:44;;;;;;;4.47;1.10;;;12.90;99.90;;;;;;4970559;28;20132;-58
2022/08/31 03:20:11;;;;;;;2.03;0.90;;;12.90;99.90;;;;;;4972498;28;20514;-58
2022/08/31 03:22:37;;;;;;;5.30;0.93;;;12.90;99.90;;;;;;4972320;28;20714;-59
2022/08/31 03:25:04;;;;;;;4.45;1.10;;;12.90;99.90;;;;;;4969609;28;20097;-59
2022/08/31 03:27:29;;;;;;;5.43;1.27;;;12.90;99.90;;;;;;4978193;28;20035;-58
2022/08/31 03:29:56;;;;;;;3.38;1.05;;;13.00;99.90;;;;;;4971077;28;20042;-58
2022/08/31 03:32:22;;;;;;;5.18;0.80;;;13.00;99.90;;;;;;4971647;28;20089;-58
2022/08/31 03:34:55;;;;;;;5.28;0.93;;;13.00;99.90;;;;;;4971781;28;20035;-60
2022/08/31 03:37:21;;;;;;;6.45;1.08;;;13.00;99.90;;;;;;4975697;28;20082;-58
2022/08/31 03:39:47;;;;;;;3.58;1.08;;;13.00;99.90;;;;;;4964426;28;20047;-59
2022/08/31 03:42:13;;;;;;;5.78;1.55;;;12.90;99.90;;;;;;4978620;23;20016;-59
2022/08/31 03:44:39;;;;;;;1.63;0.90;;;13.00;99.90;;;;;;4985758;28;20125;-59
2022/08/31 03:47:04;;;;;;;2.15;1.20;;;13.00;99.90;;;;;;4991394;28;20062;-58
2022/08/31 03:49:30;;;;;;;6.00;1.88;;;13.10;99.90;;;;;;4992162;28;20089;-59
2022/08/31 03:51:56;;;;;;;5.32;1.05;;;13.00;99.90;;;;;;4988270;28;20032;-59
2022/08/31 03:54:22;;;;;;;5.38;1.40;;;13.00;99.90;;;;;;4989814;28;20038;-59
2022/08/31 03:56:47;;;;;;;5.95;1.38;;;13.00;99.90;;;;;;4980511;28;20026;-60
2022/08/31 03:59:13;;;;;;;3.08;1.05;;;13.00;99.90;;;;;;4991687;28;20031;-59
2022/08/31 04:01:39;;;;;;;4.28;0.90;;;13.00;99.90;;;;;;4988689;28;20355;-59
2022/08/31 04:04:05;;;;;;;3.72;1.00;;;13.00;99.90;;;;;;4990892;28;20038;-59
2022/08/31 04:06:31;;;;;;;5.28;1.10;;;13.00;99.90;;;;;;4990439;28;20379;-59
2022/08/31 04:08:57;;;;;;;1.67;0.82;;;13.00;99.90;;;;;;4990315;28;20072;-59
2022/08/31 04:11:26;;;;;;;4.38;1.33;;;13.00;99.90;;;;;;4991243;28;20030;-59
2022/08/31 04:13:52;;;;;;;6.22;1.35;;;13.00;99.90;;;;;;4989460;28;20027;-60
2022/08/31 04:16:21;;;;;;;3.50;1.23;;;13.00;99.90;;;;;;4991025;28;20026;-60
2022/08/31 04:18:47;;;;;;;6.25;1.30;;;12.90;99.90;;;;;;4989490;28;20022;-59
2022/08/31 04:21:14;;;;;;;2.05;0.90;;;13.00;99.90;;;;;;4991545;28;20501;-59
2022/08/31 04:23:40;;;;;;;3.25;1.10;;;12.90;99.90;;;;;;4989937;28;20113;-59
2022/08/31 04:26:13;;;;;;;3.47;1.13;;;12.90;99.90;;;;;;4989459;28;20129;-59
2022/08/31 04:28:39;;;;;;;5.45;1.25;;;12.90;99.90;;;;;;4981755;28;20033;-60
2022/08/31 04:31:08;;;;;;;4.63;1.05;;;12.90;99.90;;;;;;4990019;28;20034;-60
2022/08/31 04:33:38;;;;;;;5.55;1.10;;;12.90;99.90;;;;;;4986237;28;20058;-60
2022/08/31 04:36:08;;;;;;;3.42;1.13;;;12.80;99.90;;;;;;4985291;28;20066;-60
2022/08/31 04:38:34;;;;;;;3.05;0.88;;;12.70;99.90;;;;;;4980380;28;20034;-60
2022/08/31 04:41:11;;;;;;;6.22;1.33;;;12.70;99.90;;;;;;4988940;28;20031;-60
2022/08/31 04:43:42;;;;;;;2.22;0.93;;;12.70;99.90;;;;;;4977366;28;20055;-60
2022/08/31 04:46:08;;;;;;;4.15;1.10;;;12.70;99.90;;;;;;5000790;28;20046;-60
2022/08/31 04:48:34;;;;;;;5.07;1.23;;;12.70;99.90;;;;;;4991287;28;20030;-60
2022/08/31 04:51:09;;;;;;;3.60;1.08;;;12.70;99.90;;;;;;4989778;28;20069;-60
2022/08/31 04:53:37;;;;;;;2.83;1.15;;;12.70;99.90;;;;;;4990852;28;20033;-59
2022/08/31 04:56:13;;;;;;;4.28;1.45;;;12.70;99.90;;;;;;4983683;28;20038;-60
2022/08/31 04:58:48;;;;;;;4.45;1.77;;;12.70;99.90;;;;;;4988110;28;20402;-59
2022/08/31 05:01:17;;;;;;;9.32;5.07;;;12.70;99.90;;;;;;4989588;28;20034;-59
2022/08/31 05:03:43;;;;;;;3.38;1.38;;;12.70;99.90;;;;;;4988748;28;20030;-59
2022/08/31 05:06:14;;;;;;;2.22;1.00;;;12.70;99.90;;;;;;4987677;28;20042;-59
2022/08/31 05:08:41;;;;;;;4.50;1.27;;;12.80;99.90;;;;;;4988678;28;20026;-59
2022/08/31 05:11:11;;;;;;;4.18;1.10;;;12.80;99.90;;;;;;4988873;28;20080;-59
2022/08/31 05:13:36;;;;;;;3.88;1.50;;;12.70;99.90;;;;;;4986717;28;20041;-59
2022/08/31 05:16:09;;;;;;;5.93;1.33;;;12.70;99.90;;;;;;4986503;28;20486;-59
2022/08/31 05:18:36;;;;;;;5.90;1.35;;;12.70;99.90;;;;;;4990138;28;20084;-59
2022/08/31 05:21:14;;;;;;;3.13;1.67;;;12.80;99.90;;;;;;4988928;28;20457;-59
2022/08/31 05:23:40;;;;;;;4.93;1.33;;;12.90;99.90;;;;;;4983446;28;20082;-60
2022/08/31 05:26:07;;;;;;;4.00;1.83;;;13.00;99.90;;;;;;4986748;28;20041;-60
2022/08/31 05:28:34;;;;;;;5.10;1.35;;;13.20;99.90;;;;;;4980220;28;20034;-60
2022/08/31 05:31:00;;;;;;;4.18;1.30;;;13.40;99.90;;;;;;4984927;28;20474;-59
2022/08/31 05:33:28;;;;;;;9.23;1.38;;;13.50;99.90;;;;;;4986125;28;20542;-60
2022/08/31 05:35:54;;;;;;;3.47;0.85;;;13.70;99.90;;;;;;4987020;28;20117;-60
2022/08/31 05:38:20;;;;;;;5.03;1.27;;;13.80;99.90;;;;;;4984247;28;20438;-59
2022/08/31 05:40:53;;;;;;;7.82;1.30;;;13.80;99.90;;;;;;4987748;28;20036;-59
2022/08/31 05:43:20;;;;;;;6.75;1.38;;;13.70;99.90;;;;;;4989545;28;20042;-59
2022/08/31 05:45:45;;;;;;;6.07;1.60;;;13.60;99.90;;;;;;4982699;28;20070;-59
2022/08/31 05:48:11;;;;;;;3.70;1.33;;;13.60;99.90;;;;;;4990010;28;20088;-59
2022/08/31 05:50:37;;;;;;;3.58;1.48;;;13.70;99.90;;;;;;4988876;28;20030;-59
2022/08/31 05:53:03;;;;;;;2.65;1.67;;;13.70;99.90;;;;;;4985577;28;20025;-59
2022/08/31 05:55:30;;;;;;;5.38;2.88;;;13.80;99.90;;;;;;4985338;28;20524;-59
2022/08/31 05:57:56;;;;;;;6.13;2.30;;;13.90;99.90;;;;;;4991331;28;20021;-59
2022/08/31 06:00:23;;;;;;;3.95;1.35;;;14.00;99.90;;;;;;4976763;28;20392;-60
2022/08/31 06:02:49;;;;;;;4.07;1.10;;;13.90;99.90;;;;;;4975950;28;20078;-59
2022/08/31 06:05:15;;;;;;;5.15;1.33;;;13.90;99.90;;;;;;4986525;28;20422;-59
2022/08/31 06:07:41;;;;;;;2.58;1.23;;;13.90;99.90;;;;;;4987332;28;20449;-59
2022/08/31 06:10:08;;;;;;;2.97;1.15;;;13.90;99.90;;;;;;4983825;28;20023;-60
2022/08/31 06:12:33;;;;;;;7.05;1.70;;;14.00;99.90;;;;;;4982677;28;20026;-59
2022/08/31 06:15:04;;;;;;;3.22;1.63;;;14.00;99.90;;;;;;4979173;28;20352;-60
2022/08/31 06:17:33;;;;;;;3.65;1.40;;;14.00;99.90;;;;;;4983030;28;20109;-60
2022/08/31 06:20:00;;;;;;;6.45;1.40;;;14.10;99.90;;;;;;4982564;28;20122;-60
2022/08/31 06:22:26;;;;;;;3.40;1.35;;;14.20;99.90;;;;;;4984305;28;20042;-60
2022/08/31 06:24:52;;;;;;;4.15;1.48;;;14.20;99.90;;;;;;4987617;28;20427;-60
2022/08/31 06:27:18;;;;;;;10.82;1.83;;;14.30;99.90;;;;;;4988853;28;20395;-60
2022/08/31 06:29:44;;;;;;;8.30;3.08;;;14.30;99.90;;;;;;4986606;28;20035;-60
2022/08/31 06:32:12;;;;;;;8.02;1.70;;;14.40;99.90;;;;;;4986891;28;20023;-60
2022/08/31 06:34:39;;;;;;;10.05;3.10;;;14.30;99.90;;;;;;4987930;28;20034;-60
2022/08/31 06:37:07;;;;;;;4.53;2.45;;;14.50;99.90;;;;;;4986379;28;20466;-60
2022/08/31 06:39:33;;;;;;;6.25;1.88;;;14.50;99.90;;;;;;4980341;28;20028;-60
2022/08/31 06:41:59;;;;;;;4.47;1.70;;;14.60;99.90;;;;;;4987081;28;20041;-60
2022/08/31 06:44:25;;;;;;;4.00;1.20;;;14.60;99.90;;;;;;4979547;28;20039;-60
2022/08/31 06:46:51;;;;;;;6.85;1.80;;;14.70;99.90;;;;;;4986994;28;20483;-61
2022/08/31 06:49:19;;;;;;;6.03;1.70;;;14.70;99.90;;;;;;4987029;28;20058;-60
2022/08/31 06:51:45;;;;;;;5.90;1.80;;;14.70;99.90;;;;;;4987034;28;20019;-61
2022/08/31 06:54:16;;;;;;;5.28;1.48;;;14.80;99.90;;;;;;4983025;28;20022;-61
2022/08/31 06:56:42;;;;;;;7.90;1.92;;;14.90;99.90;;;;;;4971843;28;20033;-60
2022/08/31 06:59:08;;;;;;;3.10;1.73;;;14.90;99.90;;;;;;4974354;28;20030;-60
2022/08/31 07:01:35;;;;;;;3.13;1.38;;;15.00;99.90;;;;;;4974189;28;20034;-60
2022/08/31 07:04:03;;;;;;;8.52;3.47;;;15.00;99.90;;;;;;4981794;28;20027;-60
2022/08/31 07:06:42;;;;;;;6.47;1.60;;;15.00;99.90;;;;;;4987963;28;20030;-60
2022/08/31 07:09:10;;;;;;;6.13;1.48;;;15.10;99.90;;;;;;4987929;28;20113;-60
2022/08/31 07:11:40;;;;;;;6.95;2.35;;;15.20;99.90;;;;;;4987636;28;20509;-60
2022/08/31 07:14:13;;;;;;;3.78;1.38;;;15.20;99.90;;;;;;4991275;28;20026;-60
2022/08/31 07:16:40;;;;;;;12.30;1.98;;;15.20;99.90;;;;;;4986856;28;20030;-60
2022/08/31 07:19:07;;;;;;;11.02;1.98;;;15.30;99.90;;;;;;4984942;28;20540;-60
2022/08/31 07:21:40;;;;;;;6.25;2.10;;;15.40;99.90;;;;;;4980580;28;20026;-59
2022/08/31 07:24:07;;;;;;;8.00;1.77;;;15.50;99.90;;;;;;4975524;28;20019;-61
2022/08/31 07:26:46;;;;;;;6.50;1.38;;;15.50;99.90;;;;;;4976147;28;20130;-60
2022/08/31 07:29:14;;;;;;;4.55;1.60;;;15.40;99.90;;;;;;4977617;28;20023;-60
2022/08/31 07:31:47;;;;;;;9.23;1.60;;;15.60;99.90;;;;;;4976754;28;20376;-59
2022/08/31 07:34:20;;;;;;;9.73;2.03;;;15.60;99.90;;;;;;4981344;28;20077;-61
2022/08/31 07:42:22;;;;;;;5.50;2.65;;;16.00;99.90;;;;;;4987674;28;20073;-60
2022/08/31 07:44:50;;;;;;;8.52;1.52;;;16.10;99.90;;;;;;4989291;28;20050;-61
2022/08/31 07:47:18;;;;;;;5.57;1.50;;;16.20;99.90;;;;;;4989883;28;20097;-60
2022/08/31 07:49:47;;;;;;;7.15;2.47;;;16.30;99.90;;;;;;4986287;28;20019;-59
2022/08/31 07:52:20;;;;;;;7.22;1.60;;;16.40;99.90;;;;;;4980727;28;20029;-59
2022/08/31 07:54:47;;;;;;;8.07;1.52;;;16.50;99.90;;;;;;4986151;28;20025;-60
2022/08/31 07:57:14;;;;;;;9.80;2.72;;;16.60;99.90;;;;;;4984559;28;20027;-59
2022/08/31 07:59:40;;;;;;;7.85;1.50;;;16.70;99.90;;;;;;4988517;28;20064;-59
2022/08/31 08:02:15;;;;;;;5.35;1.80;;;16.90;99.90;;;;;;4983491;28;20446;-60
2022/08/31 08:04:43;;;;;;;5.50;2.22;;;17.00;99.90;;;;;;4986918;28;20029;-60
2022/08/31 08:07:10;;;;;;;5.07;2.00;;;17.10;99.90;;;;;;4985934;28;20038;-60
2022/08/31 08:09:37;;;;;;;7.47;1.77;;;17.20;99.90;;;;;;4990984;28;20061;-60
2022/08/31 08:12:05;;;;;;;5.30;1.10;;;17.40;99.90;;;;;;4984674;28;20152;-59
2022/08/31 08:14:36;;;;;;;6.25;1.08;;;17.60;99.90;;;;;;4984469;28;20030;-62
2022/08/31 08:17:04;;;;;;;5.30;1.55;;;17.70;99.90;;;;;;4979954;28;20040;-59
2022/08/31 08:19:32;;;;;;;6.63;1.70;;;17.90;99.90;;;;;;4985153;28;20026;-60
2022/08/31 08:21:59;;;;;;;6.13;1.50;;;18.10;99.90;;;;;;4988579;28;20065;-59
2022/08/31 08:24:25;;;;;;;9.18;1.77;;;18.30;99.90;;;;;;4989780;28;20099;-59
2022/08/31 08:26:52;;;;;;;4.53;1.25;;;18.30;99.90;;;;;;4985372;28;20043;-60
2022/08/31 08:29:19;;;;;;;6.38;1.42;;;18.30;99.90;;;;;;4987183;28;20030;-60
2022/08/31 08:31:50;;;;;;;5.88;1.80;;;18.50;99.90;;;;;;4983996;28;20109;-60
2022/08/31 08:34:18;;;;;;;8.82;1.30;;;18.60;99.90;;;;;;4975318;28;20497;-60
2022/08/31 08:36:45;;;;;;;8.63;1.05;;;18.70;99.90;;;;;;4973429;28;20035;-60
2022/08/31 08:39:11;;;;;;;7.10;1.25;;;18.80;99.90;;;;;;4975977;28;20027;-61
2022/08/31 08:41:40;;;;;;;5.22;1.40;;;18.90;99.90;;;;;;4978564;28;20559;-61
2022/08/31 08:44:11;;;;;;;8.20;1.63;;;19.10;99.90;;;;;;4975940;28;20068;-60
2022/08/31 08:46:47;;;;;;;10.25;1.10;;;19.20;99.90;;;;;;4978551;28;20038;-61
2022/08/31 08:49:21;;;;;;;4.55;1.60;;;19.30;99.90;;;;;;4981070;28;20038;-61
2022/08/31 08:51:52;;;;;;;8.40;2.22;;;19.30;99.90;;;;;;4981275;28;20566;-60
2022/08/31 08:54:27;;;;;;;6.00;1.58;;;19.40;99.90;;;;;;4989925;28;20018;-60
2022/08/31 08:56:52;;;;;;;8.20;1.27;;;19.60;99.90;;;;;;4988058;28;20478;-60
2022/08/31 08:59:18;;;;;;;4.65;0.85;;;19.80;99.90;;;;;;4985647;28;20136;-60
2022/08/31 09:01:47;;;;;;;4.50;1.30;;;19.80;99.90;;;;;;4979328;28;20517;-60
2022/08/31 09:04:29;;;;;;;7.35;1.13;;;19.90;99.90;;;;;;4978288;28;20026;-60
2022/08/31 09:07:21;;;;;;;4.75;1.27;;;20.00;99.90;;;;;;4977918;28;20525;-62
2022/08/31 09:10:04;;;;;;;7.10;1.70;;;20.10;99.90;;;;;;4977345;28;20026;-60
2022/08/31 09:12:40;;;;;;;8.68;1.70;;;20.20;99.90;;;;;;4981901;28;20030;-60
2022/08/31 09:15:27;;;;;;;5.22;1.10;;;20.40;99.90;;;;;;4981681;28;20037;-60
2022/08/31 09:18:25;;;;;;;4.63;1.15;;;20.50;99.90;;;;;;4983744;28;20080;-60
2022/08/31 09:21:04;;;;;;;5.43;1.20;;;20.70;99.90;;;;;;4986803;28;20026;-60
2022/08/31 09:23:36;;;;;;;5.40;1.17;;;20.90;99.90;;;;;;4986344;28;20018;-60
2022/08/31 09:26:05;;;;;;;;;;;21.20;99.90;;;;;;4983199;28;20124;-60
2022/08/31 09:28:35;;;;;;;4.30;1.00;;;21.40;99.90;;;;;;4987095;28;19964;-60
2022/08/31 09:31:01;;;;;;;9.98;1.38;;;21.40;99.90;;;;;;4990116;28;20027;-60
2022/08/31 09:33:45;;;;;;;4.78;1.05;;;21.40;99.90;;;;;;4984180;28;20446;-60
2022/08/31 09:37:00;;;;;;;7.45;1.30;;;21.30;99.90;;;;;;4982899;28;20031;-60
2022/08/31 09:39:31;;;;;;;4.20;1.30;;;21.40;99.90;;;;;;4986759;28;20026;-61
2022/08/31 09:42:02;;;;;;;4.83;1.17;;;21.50;99.90;;;;;;4987595;28;20023;-61
2022/08/31 09:44:33;;;;;;;3.10;0.98;;;21.70;99.90;;;;;;4979309;28;20363;-60
2022/08/31 09:47:02;;;;;;;7.60;1.10;;;22.00;99.90;;;;;;4993036;28;21019;-60
2022/08/31 09:49:38;;;;;;;6.97;1.60;;;22.00;99.90;;;;;;4981984;28;20481;-60
2022/08/31 09:55:23;;;;;;;8.75;1.50;;;22.20;99.90;;;;;;4991518;28;20110;-61
2022/08/31 09:57:55;;;;;;;7.40;1.70;;;22.10;99.90;;;;;;4993724;28;20491;-60
2022/08/31 10:00:40;;;;;;;10.98;1.55;;;22.10;99.90;;;;;;4995681;28;20034;-60
2022/08/31 10:03:17;;;;;;;5.68;1.25;;;22.00;99.90;;;;;;4983823;28;20232;-60
2022/08/31 10:05:43;;;;;;;4.30;1.02;;;22.10;99.90;;;;;;4980688;28;20651;-60
2022/08/31 10:08:12;;;;;;;9.52;1.40;;;22.10;99.90;;;;;;4988126;28;20109;-60
2022/08/31 10:10:41;;;;;;;9.95;1.30;;;22.10;99.90;;;;;;4997639;28;20025;-61
2022/08/31 10:13:25;;;;;;;3.80;1.10;;;22.20;99.90;;;;;;4987230;28;20095;-60
2022/08/31 10:16:15;;;;;;;6.95;1.25;;;22.40;99.90;;;;;;4986304;28;20157;-60
2022/08/31 10:18:58;;;;;;;10.95;1.75;;;22.60;99.90;;;;;;4981373;28;20088;-61
2022/08/31 10:21:39;;;;;;;6.53;1.35;;;22.90;99.90;;;;;;4984962;28;20077;-60
2022/08/31 10:24:33;;;;;;;7.43;1.00;;;22.90;99.90;;;;;;4980400;28;20081;-60
2022/08/31 10:27:37;;;;;;;4.50;1.00;;;22.60;99.90;;;;;;4983872;28;20431;-60
2022/08/31 10:30:27;;;;;;;5.38;1.40;;;22.90;99.90;;;;;;4978575;28;20077;-61
2022/08/31 10:33:10;;;;;;;8.05;1.00;;;23.00;99.90;;;;;;4993251;28;20502;-60
2022/08/31 10:35:51;;;;;;;3.67;0.80;;;23.10;99.90;;;;;;4988426;28;20030;-61
2022/08/31 10:38:37;;;;;;;4.22;0.82;;;23.40;99.90;;;;;;4989131;28;20608;-60
2022/08/31 10:41:24;;;;;;;7.05;1.08;;;23.40;99.90;;;;;;4991832;28;20049;-60
2022/08/31 10:44:16;;;;;;;6.90;1.20;;;23.20;99.90;;;;;;4992410;28;20046;-61
2022/08/31 10:46:47;;;;;;;4.32;1.15;;;23.40;99.90;;;;;;4991138;28;20413;-61
2022/08/31 10:49:13;;;;;;;4.03;1.02;;;23.80;99.90;;;;;;4996834;28;20041;-60
2022/08/31 10:52:09;;;;;;;5.10;1.23;;;23.90;99.90;;;;;;4998989;28;20498;-59
2022/08/31 10:54:44;;;;;;;6.35;1.30;;;24.10;99.90;;;;;;4988165;28;20042;-60
2022/08/31 10:57:49;;;;;;;6.57;1.05;;;24.10;99.90;;;;;;5001133;28;20088;-61
2022/08/31 11:03:21;;;;;;;7.55;1.25;;;23.70;99.90;;;;;;4999636;28;20112;-59
2022/08/31 11:05:59;;;;;;;8.80;1.83;;;23.60;99.90;;;;;;4982135;28;20085;-60
2022/08/31 11:08:48;;;;;;;5.78;1.15;;;24.10;99.90;;;;;;4992480;28;20490;-60
2022/08/31 11:11:26;;;;;;;3.70;1.00;;;24.20;99.90;;;;;;4988720;28;20081;-60
2022/08/31 11:13:59;;;;;;;3.90;1.00;;;24.50;99.90;;;;;;4995392;28;20084;-60
2022/08/31 11:16:42;;;;;;;6.07;0.80;;;24.40;99.90;;;;;;4988441;28;20026;-60
2022/08/31 11:19:24;;;;;;;8.88;1.10;;;24.30;99.90;;;;;;4985041;28;20085;-60
2022/08/31 11:22:30;;;;;;;3.60;1.33;;;25.00;99.90;;;;;;4994223;28;20168;-60
2022/08/31 11:25:23;;;;;;;6.22;1.80;;;25.70;99.90;;;;;;4929461;29;20044;-60
2022/08/31 11:27:58;;;;;;;3.20;1.08;;;25.80;99.90;;;;;;4926403;29;20172;-60
2022/08/31 11:30:30;;;;;;;5.32;1.17;;;25.90;99.90;;;;;;4940113;29;20059;-60
2022/08/31 11:32:59;;;;;;;5.35;1.20;;;26.00;99.90;;;;;;4937721;29;20035;-60
2022/08/31 11:35:46;;;;;;;4.95;1.00;;;26.10;99.90;;;;;;4942032;29;20047;-60
2022/08/31 11:38:47;;;;;;;6.15;1.10;;;26.50;99.90;;;;;;4931032;29;20479;-60
2022/08/31 11:41:38;;;;;;;5.10;1.23;;;27.20;99.90;;;;;;4928925;29;20142;-61
2022/08/31 11:44:07;;;;;;;5.47;1.65;;;28.00;99.30;;;;;;4921885;29;20048;-59
2022/08/31 11:46:33;;;;;;;2.47;0.95;;;27.30;99.30;;;;;;4932111;29;20138;-60
2022/08/31 11:48:59;;;;;;;3.90;0.70;;;26.80;99.90;;;;;;4933872;29;20794;-60
2022/08/31 11:51:31;;;;;;;4.72;1.50;;;26.10;99.90;;;;;;4941366;29;20047;-60
2022/08/31 11:53:58;;;;;;;2.80;0.80;;;25.70;99.90;;;;;;4911014;29;20032;-60
2022/08/31 11:56:50;;;;;;;5.63;0.80;;;25.40;99.90;;;;;;4933016;28;20044;-60
2022/08/31 11:59:36;;;;;;;5.38;1.15;;;25.40;99.90;;;;;;4930067;29;20483;-60
2022/08/31 12:02:20;;;;;;;5.38;0.90;;;25.40;99.90;;;;;;4970150;28;20034;-60
2022/08/31 12:04:52;;;;;;;2.78;0.90;;;25.80;99.90;;;;;;4993969;28;20552;-60
2022/08/31 12:07:27;;;;;;;2.00;0.80;;;26.50;99.90;;;;;;4997488;28;20433;-60
2022/08/31 12:10:04;;;;;;;2.97;0.75;;;27.30;99.80;;;;;;4990441;28;20108;-60
2022/08/31 12:12:41;;;;;;;5.95;1.20;;;27.10;97.70;;;;;;4985424;28;20117;-62
2022/08/31 12:15:22;;;;;;;6.50;0.98;;;26.70;98.60;;;;;;4983165;28;20061;-60
2022/08/31 12:17:59;;;;;;;2.58;0.90;;;26.30;98.90;;;;;;4985877;28;20034;-60
2022/08/31 12:23:37;;;;;;;4.15;0.82;;;25.80;99.90;;;;;;4977354;28;20371;-60
2022/08/31 12:26:32;;;;;;;3.60;0.90;;;25.40;99.90;;;;;;4978440;28;20042;-61
2022/08/31 12:29:16;;;;;;;2.38;0.90;;;25.60;99.90;;;;;;4984776;28;20035;-61
2022/08/31 12:31:56;;;;;;;3.33;0.82;;;25.50;99.90;;;;;;4991231;28;20463;-60
2022/08/31 12:34:22;;;;;;;5.80;1.05;;;25.50;99.90;;;;;;4986677;28;20018;-60
2022/08/31 12:36:48;;;;;;;3.53;0.60;;;26.90;99.60;;;;;;4986472;28;20430;-60
2022/08/31 12:39:23;;;;;;;3.30;1.27;;;27.50;97.50;;;;;;4992498;28;20030;-61
2022/08/31 12:41:51;;;;;;;4.00;0.88;;;27.40;96.80;;;;;;4991364;28;20023;-61
2022/08/31 12:44:43;;;;;;;2.97;1.05;;;26.80;96.90;;;;;;4990729;28;20046;-61
2022/08/31 12:47:20;;;;;;;5.82;0.98;;;26.30;98.30;;;;;;4987369;28;20112;-60
2022/08/31 12:50:31;;;;;;;2.47;0.80;;;26.40;98.50;;;;;;4990122;28;20117;-60
2022/08/31 12:53:35;;;;;;;6.35;1.00;;;27.20;96.30;;;;;;4930598;29;20046;-61
2022/08/31 12:56:18;;;;;;;1.88;0.75;;;28.70;93.10;;;;;;4905792;29;20106;-60
2022/08/31 12:59:12;;;;;;;3.78;0.63;;;28.90;91.70;;;;;;4927636;29;20499;-61
2022/08/31 13:01:46;;;;;;;1.58;0.80;;;28.90;91.10;;;;;;4925368;29;20124;-61
2022/08/31 13:04:15;;;;;;;7.07;1.00;;;29.90;90.00;;;;;;4918931;29;20020;-61
2022/08/31 13:06:43;;;;;;;3.13;0.75;;;29.50;87.50;;;;;;4922371;29;20540;-61
2022/08/31 13:09:23;;;;;;;5.10;1.17;;;29.40;85.00;;;;;;4927739;29;20530;-62
2022/08/31 13:11:51;;;;;;;3.47;0.82;;;28.70;85.50;;;;;;4930672;29;20070;-62
2022/08/31 13:14:23;;;;;;;3.90;0.90;;;28.20;87.30;;;;;;4926691;29;20118;-61
2022/08/31 13:16:52;;;;;;;3.88;0.80;;;27.70;90.40;;;;;;4923426;29;20062;-61
2022/08/31 13:19:29;;;;;;;5.22;1.20;;;27.90;91.40;;;;;;4932572;29;20046;-61
2022/08/31 13:22:06;;;;;;;2.10;0.70;;;28.80;88.20;;;;;;4920037;29;20036;-61
2022/08/31 13:24:40;;;;;;;7.35;0.88;;;29.30;86.80;;;;;;4925614;29;20472;-61
2022/08/31 13:27:26;;;;;;;5.55;1.00;;;29.70;82.70;;;;;;4965556;28;20579;-62
2022/08/31 13:29:54;;;;;;;5.38;0.88;;;28.90;82.60;;;;;;4989616;28;20049;-61